sensor_id;sensor_type;location;lat;lon;timestamp;P1;durP1;ratioP1;P2;durP2;ratioP2
30613;SDS011;17381;51.690;5.270;2023-01-24T00:02:05;21.30;;;13.05;;
30613;SDS011;17381;51.690;5.270;2023-01-24T00:05:18;19.73;;;12.38;;
30613;SDS011;17381;51.690;5.270;2023-01-24T00:07:57;20.63;;;12.75;;
30613;SDS011;17381;51.690;5.270;2023-01-24T00:10:47;20.25;;;12.93;;
30613;SDS011;17381;51.690;5.270;2023-01-24T00:13:34;21.13;;;12.57;;
30613;SDS011;17381;51.690;5.270;2023-01-24T00:16:15;24.20;;;13.40;;
30613;SDS011;17381;51.690;5.270;2023-01-24T00:23:05;22.42;;;13.35;;
30613;SDS011;17381;51.690;5.270;2023-01-24T00:25:59;21.60;;;13.40;;
30613;SDS011;17381;51.690;5.270;2023-01-24T00:28:40;22.40;;;13.20;;
30613;SDS011;17381;51.690;5.270;2023-01-24T00:31:30;24.42;;;14.48;;
30613;SDS011;17381;51.690;5.270;2023-01-24T00:34:40;24.02;;;14.43;;
30613;SDS011;17381;51.690;5.270;2023-01-24T00:38:32;23.48;;;14.00;;
30613;SDS011;17381;51.690;5.270;2023-01-24T00:41:41;22.00;;;13.65;;
30613;SDS011;17381;51.690;5.270;2023-01-24T00:45:06;23.80;;;13.65;;
30613;SDS011;17381;51.690;5.270;2023-01-24T00:51:16;25.20;;;14.13;;
30613;SDS011;17381;51.690;5.270;2023-01-24T00:58:35;22.55;;;12.98;;
30613;SDS011;17381;51.690;5.270;2023-01-24T01:01:14;19.98;;;12.48;;
30613;SDS011;17381;51.690;5.270;2023-01-24T01:03:53;22.92;;;14.35;;
30613;SDS011;17381;51.690;5.270;2023-01-24T01:07:13;23.75;;;14.35;;
30613;SDS011;17381;51.690;5.270;2023-01-24T01:09:51;24.30;;;13.65;;
30613;SDS011;17381;51.690;5.270;2023-01-24T01:12:25;24.33;;;13.93;;
30613;SDS011;17381;51.690;5.270;2023-01-24T01:15:10;20.52;;;12.75;;
30613;SDS011;17381;51.690;5.270;2023-01-24T01:17:57;22.42;;;14.10;;
30613;SDS011;17381;51.690;5.270;2023-01-24T01:20:56;20.70;;;12.32;;
30613;SDS011;17381;51.690;5.270;2023-01-24T01:27:52;24.80;;;14.00;;
30613;SDS011;17381;51.690;5.270;2023-01-24T01:34:09;22.27;;;13.18;;
30613;SDS011;17381;51.690;5.270;2023-01-24T01:37:10;23.13;;;14.00;;
30613;SDS011;17381;51.690;5.270;2023-01-24T01:39:47;23.73;;;14.20;;
30613;SDS011;17381;51.690;5.270;2023-01-24T01:42:19;22.35;;;14.40;;
30613;SDS011;17381;51.690;5.270;2023-01-24T01:44:52;23.38;;;14.75;;
30613;SDS011;17381;51.690;5.270;2023-01-24T01:51:06;21.08;;;13.45;;
30613;SDS011;17381;51.690;5.270;2023-01-24T01:54:21;20.40;;;12.63;;
30613;SDS011;17381;51.690;5.270;2023-01-24T01:57:26;20.83;;;12.27;;
30613;SDS011;17381;51.690;5.270;2023-01-24T02:03:06;19.90;;;13.05;;
30613;SDS011;17381;51.690;5.270;2023-01-24T02:10:18;18.40;;;11.48;;
30613;SDS011;17381;51.690;5.270;2023-01-24T02:13:15;19.67;;;12.10;;
30613;SDS011;17381;51.690;5.270;2023-01-24T02:16:16;19.67;;;11.82;;
30613;SDS011;17381;51.690;5.270;2023-01-24T02:19:03;20.58;;;12.45;;
30613;SDS011;17381;51.690;5.270;2023-01-24T02:21:33;17.55;;;10.57;;
30613;SDS011;17381;51.690;5.270;2023-01-24T02:24:44;20.52;;;12.45;;
30613;SDS011;17381;51.690;5.270;2023-01-24T02:27:56;18.92;;;11.73;;
30613;SDS011;17381;51.690;5.270;2023-01-24T02:30:40;18.60;;;11.57;;
30613;SDS011;17381;51.690;5.270;2023-01-24T02:33:32;18.63;;;11.63;;
30613;SDS011;17381;51.690;5.270;2023-01-24T02:36:37;18.77;;;11.93;;
30613;SDS011;17381;51.690;5.270;2023-01-24T02:39:45;20.33;;;12.60;;
30613;SDS011;17381;51.690;5.270;2023-01-24T02:42:49;20.70;;;11.82;;
30613;SDS011;17381;51.690;5.270;2023-01-24T02:45:40;21.20;;;13.15;;
30613;SDS011;17381;51.690;5.270;2023-01-24T02:50:50;19.60;;;11.75;;
30613;SDS011;17381;51.690;5.270;2023-01-24T02:53:48;21.10;;;11.95;;
30613;SDS011;17381;51.690;5.270;2023-01-24T02:56:37;20.23;;;12.63;;
30613;SDS011;17381;51.690;5.270;2023-01-24T02:59:40;19.73;;;11.95;;
30613;SDS011;17381;51.690;5.270;2023-01-24T03:02:26;20.90;;;12.23;;
30613;SDS011;17381;51.690;5.270;2023-01-24T03:05:05;19.55;;;11.45;;
30613;SDS011;17381;51.690;5.270;2023-01-24T03:07:55;20.00;;;11.95;;
30613;SDS011;17381;51.690;5.270;2023-01-24T03:10:51;20.73;;;12.52;;
30613;SDS011;17381;51.690;5.270;2023-01-24T03:13:30;18.85;;;12.50;;
30613;SDS011;17381;51.690;5.270;2023-01-24T03:16:40;22.50;;;14.15;;
30613;SDS011;17381;51.690;5.270;2023-01-24T03:19:43;20.88;;;13.07;;
30613;SDS011;17381;51.690;5.270;2023-01-24T03:22:45;21.17;;;12.98;;
30613;SDS011;17381;51.690;5.270;2023-01-24T03:25:53;18.63;;;10.98;;
30613;SDS011;17381;51.690;5.270;2023-01-24T03:28:49;21.92;;;13.50;;
30613;SDS011;17381;51.690;5.270;2023-01-24T03:32:12;23.00;;;13.77;;
30613;SDS011;17381;51.690;5.270;2023-01-24T03:35:04;21.10;;;13.60;;
30613;SDS011;17381;51.690;5.270;2023-01-24T03:41:49;21.50;;;12.60;;
30613;SDS011;17381;51.690;5.270;2023-01-24T03:44:36;22.42;;;12.45;;
30613;SDS011;17381;51.690;5.270;2023-01-24T03:49:53;23.95;;;13.75;;
30613;SDS011;17381;51.690;5.270;2023-01-24T03:52:48;22.35;;;13.35;;
30613;SDS011;17381;51.690;5.270;2023-01-24T03:56:03;22.33;;;14.05;;
30613;SDS011;17381;51.690;5.270;2023-01-24T03:58:45;20.20;;;13.27;;
30613;SDS011;17381;51.690;5.270;2023-01-24T04:04:20;24.60;;;14.52;;
30613;SDS011;17381;51.690;5.270;2023-01-24T04:07:37;22.17;;;13.30;;
30613;SDS011;17381;51.690;5.270;2023-01-24T04:14:13;22.80;;;13.90;;
30613;SDS011;17381;51.690;5.270;2023-01-24T04:17:31;21.98;;;13.38;;
30613;SDS011;17381;51.690;5.270;2023-01-24T04:20:49;21.63;;;13.35;;
30613;SDS011;17381;51.690;5.270;2023-01-24T04:23:38;21.63;;;12.95;;
30613;SDS011;17381;51.690;5.270;2023-01-24T04:26:15;19.92;;;12.48;;
30613;SDS011;17381;51.690;5.270;2023-01-24T04:29:04;21.95;;;13.38;;
30613;SDS011;17381;51.690;5.270;2023-01-24T04:31:47;23.50;;;14.02;;
30613;SDS011;17381;51.690;5.270;2023-01-24T04:34:41;23.00;;;13.57;;
30613;SDS011;17381;51.690;5.270;2023-01-24T04:37:24;21.70;;;13.18;;
30613;SDS011;17381;51.690;5.270;2023-01-24T04:40:00;23.95;;;14.63;;
30613;SDS011;17381;51.690;5.270;2023-01-24T04:42:37;20.17;;;12.70;;
30613;SDS011;17381;51.690;5.270;2023-01-24T04:47:47;21.25;;;13.60;;
30613;SDS011;17381;51.690;5.270;2023-01-24T04:50:26;21.17;;;13.77;;
30613;SDS011;17381;51.690;5.270;2023-01-24T04:53:08;24.23;;;15.27;;
30613;SDS011;17381;51.690;5.270;2023-01-24T04:55:59;21.75;;;13.40;;
30613;SDS011;17381;51.690;5.270;2023-01-24T04:58:53;23.90;;;14.63;;
30613;SDS011;17381;51.690;5.270;2023-01-24T05:01:42;23.90;;;14.05;;
30613;SDS011;17381;51.690;5.270;2023-01-24T05:04:51;21.75;;;13.30;;
30613;SDS011;17381;51.690;5.270;2023-01-24T05:07:34;23.92;;;15.35;;
30613;SDS011;17381;51.690;5.270;2023-01-24T05:10:19;22.50;;;14.10;;
30613;SDS011;17381;51.690;5.270;2023-01-24T05:12:57;24.15;;;14.93;;
30613;SDS011;17381;51.690;5.270;2023-01-24T05:16:14;22.42;;;13.05;;
30613;SDS011;17381;51.690;5.270;2023-01-24T05:19:04;21.80;;;13.17;;
30613;SDS011;17381;51.690;5.270;2023-01-24T05:21:51;21.95;;;13.32;;
30613;SDS011;17381;51.690;5.270;2023-01-24T05:24:57;22.88;;;13.45;;
30613;SDS011;17381;51.690;5.270;2023-01-24T05:27:36;21.60;;;13.73;;
30613;SDS011;17381;51.690;5.270;2023-01-24T05:30:19;23.08;;;14.15;;
30613;SDS011;17381;51.690;5.270;2023-01-24T05:33:25;21.20;;;13.60;;
30613;SDS011;17381;51.690;5.270;2023-01-24T05:36:10;20.88;;;13.50;;
30613;SDS011;17381;51.690;5.270;2023-01-24T05:38:50;23.43;;;14.10;;
30613;SDS011;17381;51.690;5.270;2023-01-24T05:41:37;17.83;;;10.98;;
30613;SDS011;17381;51.690;5.270;2023-01-24T05:44:44;21.13;;;13.15;;
30613;SDS011;17381;51.690;5.270;2023-01-24T05:47:44;22.50;;;13.68;;
30613;SDS011;17381;51.690;5.270;2023-01-24T05:51:05;22.83;;;13.88;;
30613;SDS011;17381;51.690;5.270;2023-01-24T05:53:59;23.20;;;13.65;;
30613;SDS011;17381;51.690;5.270;2023-01-24T05:57:09;21.98;;;13.30;;
30613;SDS011;17381;51.690;5.270;2023-01-24T06:00:03;22.25;;;14.27;;
30613;SDS011;17381;51.690;5.270;2023-01-24T06:02:42;22.83;;;13.80;;
30613;SDS011;17381;51.690;5.270;2023-01-24T06:05:17;21.77;;;13.07;;
30613;SDS011;17381;51.690;5.270;2023-01-24T06:08:06;25.30;;;14.90;;
30613;SDS011;17381;51.690;5.270;2023-01-24T06:11:43;22.85;;;13.38;;
30613;SDS011;17381;51.690;5.270;2023-01-24T06:14:15;23.02;;;13.55;;
30613;SDS011;17381;51.690;5.270;2023-01-24T06:17:07;23.58;;;13.52;;
30613;SDS011;17381;51.690;5.270;2023-01-24T06:19:59;20.23;;;12.25;;
30613;SDS011;17381;51.690;5.270;2023-01-24T06:22:35;23.05;;;14.02;;
30613;SDS011;17381;51.690;5.270;2023-01-24T06:25:20;21.15;;;13.45;;
30613;SDS011;17381;51.690;5.270;2023-01-24T06:28:13;22.05;;;13.80;;
30613;SDS011;17381;51.690;5.270;2023-01-24T06:37:47;25.45;;;15.65;;
30613;SDS011;17381;51.690;5.270;2023-01-24T06:40:19;21.80;;;14.18;;
30613;SDS011;17381;51.690;5.270;2023-01-24T06:42:52;23.70;;;14.65;;
30613;SDS011;17381;51.690;5.270;2023-01-24T06:46:10;27.43;;;16.63;;
30613;SDS011;17381;51.690;5.270;2023-01-24T06:49:07;24.80;;;15.73;;
30613;SDS011;17381;51.690;5.270;2023-01-24T06:52:27;26.13;;;16.30;;
30613;SDS011;17381;51.690;5.270;2023-01-24T06:55:33;23.88;;;14.63;;
30613;SDS011;17381;51.690;5.270;2023-01-24T06:58:51;26.42;;;16.95;;
30613;SDS011;17381;51.690;5.270;2023-01-24T07:01:41;24.80;;;15.70;;
30613;SDS011;17381;51.690;5.270;2023-01-24T07:04:46;27.08;;;16.48;;
30613;SDS011;17381;51.690;5.270;2023-01-24T07:08:20;26.75;;;16.10;;
30613;SDS011;17381;51.690;5.270;2023-01-24T07:11:11;28.50;;;17.27;;
30613;SDS011;17381;51.690;5.270;2023-01-24T07:14:01;26.02;;;16.63;;
30613;SDS011;17381;51.690;5.270;2023-01-24T07:17:01;26.38;;;15.77;;
30613;SDS011;17381;51.690;5.270;2023-01-24T07:20:26;28.13;;;16.58;;
30613;SDS011;17381;51.690;5.270;2023-01-24T07:23:25;30.45;;;17.70;;
30613;SDS011;17381;51.690;5.270;2023-01-24T07:26:26;38.20;;;20.45;;
30613;SDS011;17381;51.690;5.270;2023-01-24T07:29:27;29.17;;;17.75;;
30613;SDS011;17381;51.690;5.270;2023-01-24T07:32:13;33.10;;;19.70;;
30613;SDS011;17381;51.690;5.270;2023-01-24T07:35:05;30.27;;;18.33;;
30613;SDS011;17381;51.690;5.270;2023-01-24T07:37:58;29.88;;;17.83;;
30613;SDS011;17381;51.690;5.270;2023-01-24T07:40:47;27.95;;;17.77;;
30613;SDS011;17381;51.690;5.270;2023-01-24T07:44:24;29.50;;;17.52;;
30613;SDS011;17381;51.690;5.270;2023-01-24T07:47:17;27.92;;;16.85;;
30613;SDS011;17381;51.690;5.270;2023-01-24T07:50:39;27.88;;;17.23;;
30613;SDS011;17381;51.690;5.270;2023-01-24T07:53:42;26.42;;;16.63;;
30613;SDS011;17381;51.690;5.270;2023-01-24T07:57:13;29.05;;;17.27;;
30613;SDS011;17381;51.690;5.270;2023-01-24T08:00:34;28.40;;;17.10;;
30613;SDS011;17381;51.690;5.270;2023-01-24T08:03:39;29.77;;;18.40;;
30613;SDS011;17381;51.690;5.270;2023-01-24T08:13:45;28.67;;;18.65;;
30613;SDS011;17381;51.690;5.270;2023-01-24T08:20:53;27.33;;;17.02;;
30613;SDS011;17381;51.690;5.270;2023-01-24T08:23:52;29.70;;;17.70;;
30613;SDS011;17381;51.690;5.270;2023-01-24T08:26:55;31.27;;;18.88;;
30613;SDS011;17381;51.690;5.270;2023-01-24T08:29:45;31.13;;;18.65;;
30613;SDS011;17381;51.690;5.270;2023-01-24T08:32:28;30.75;;;18.58;;
30613;SDS011;17381;51.690;5.270;2023-01-24T08:36:04;27.38;;;16.77;;
30613;SDS011;17381;51.690;5.270;2023-01-24T08:38:41;29.75;;;18.45;;
30613;SDS011;17381;51.690;5.270;2023-01-24T08:41:24;28.60;;;16.98;;
30613;SDS011;17381;51.690;5.270;2023-01-24T08:43:57;31.98;;;19.08;;
30613;SDS011;17381;51.690;5.270;2023-01-24T08:47:05;29.25;;;17.20;;
30613;SDS011;17381;51.690;5.270;2023-01-24T08:50:42;27.48;;;17.85;;
30613;SDS011;17381;51.690;5.270;2023-01-24T08:53:30;30.90;;;18.48;;
30613;SDS011;17381;51.690;5.270;2023-01-24T08:56:13;32.45;;;18.08;;
30613;SDS011;17381;51.690;5.270;2023-01-24T08:58:52;27.45;;;16.75;;
30613;SDS011;17381;51.690;5.270;2023-01-24T09:01:42;27.70;;;17.02;;
30613;SDS011;17381;51.690;5.270;2023-01-24T09:04:26;29.63;;;17.10;;
30613;SDS011;17381;51.690;5.270;2023-01-24T09:07:01;25.02;;;16.00;;
30613;SDS011;17381;51.690;5.270;2023-01-24T09:09:49;26.17;;;15.60;;
30613;SDS011;17381;51.690;5.270;2023-01-24T09:12:28;28.40;;;17.02;;
30613;SDS011;17381;51.690;5.270;2023-01-24T09:15:23;28.60;;;16.55;;
30613;SDS011;17381;51.690;5.270;2023-01-24T09:18:08;27.88;;;16.63;;
30613;SDS011;17381;51.690;5.270;2023-01-24T09:20:48;25.33;;;15.90;;
30613;SDS011;17381;51.690;5.270;2023-01-24T09:23:31;29.42;;;16.83;;
30613;SDS011;17381;51.690;5.270;2023-01-24T09:26:28;27.60;;;16.98;;
30613;SDS011;17381;51.690;5.270;2023-01-24T09:29:16;27.02;;;16.73;;
30613;SDS011;17381;51.690;5.270;2023-01-24T09:32:03;27.02;;;16.42;;
30613;SDS011;17381;51.690;5.270;2023-01-24T09:34:51;27.50;;;16.48;;
30613;SDS011;17381;51.690;5.270;2023-01-24T09:37:25;27.50;;;16.35;;
30613;SDS011;17381;51.690;5.270;2023-01-24T09:40:26;27.27;;;15.43;;
30613;SDS011;17381;51.690;5.270;2023-01-24T09:43:27;27.85;;;16.35;;
30613;SDS011;17381;51.690;5.270;2023-01-24T09:51:50;29.42;;;17.05;;
30613;SDS011;17381;51.690;5.270;2023-01-24T09:54:50;28.00;;;17.17;;
30613;SDS011;17381;51.690;5.270;2023-01-24T10:01:20;28.80;;;16.98;;
30613;SDS011;17381;51.690;5.270;2023-01-24T10:04:41;27.08;;;16.10;;
30613;SDS011;17381;51.690;5.270;2023-01-24T10:23:46;25.13;;;15.13;;
30613;SDS011;17381;51.690;5.270;2023-01-24T10:29:35;27.08;;;15.93;;
30613;SDS011;17381;51.690;5.270;2023-01-24T10:32:30;21.15;;;12.23;;
30613;SDS011;17381;51.690;5.270;2023-01-24T10:38:53;26.10;;;15.45;;
30613;SDS011;17381;51.690;5.270;2023-01-24T10:42:02;25.63;;;15.32;;
30613;SDS011;17381;51.690;5.270;2023-01-24T10:45:00;26.50;;;14.63;;
30613;SDS011;17381;51.690;5.270;2023-01-24T10:51:23;23.88;;;14.27;;
30613;SDS011;17381;51.690;5.270;2023-01-24T10:54:10;24.83;;;14.82;;
30613;SDS011;17381;51.690;5.270;2023-01-24T10:57:03;25.92;;;15.35;;
30613;SDS011;17381;51.690;5.270;2023-01-24T10:59:55;27.48;;;15.93;;
30613;SDS011;17381;51.690;5.270;2023-01-24T11:02:34;25.85;;;16.05;;
30613;SDS011;17381;51.690;5.270;2023-01-24T11:05:06;21.38;;;13.95;;
30613;SDS011;17381;51.690;5.270;2023-01-24T11:08:05;23.92;;;14.73;;
30613;SDS011;17381;51.690;5.270;2023-01-24T11:11:37;24.08;;;14.20;;
30613;SDS011;17381;51.690;5.270;2023-01-24T11:14:20;23.85;;;14.43;;
30613;SDS011;17381;51.690;5.270;2023-01-24T12:09:32;23.02;;;13.50;;
30613;SDS011;17381;51.690;5.270;2023-01-24T12:36:05;20.77;;;13.10;;
30613;SDS011;17381;51.690;5.270;2023-01-24T12:42:39;21.58;;;12.32;;
30613;SDS011;17381;51.690;5.270;2023-01-24T13:28:43;21.42;;;12.10;;
30613;SDS011;17381;51.690;5.270;2023-01-24T13:32:43;18.58;;;11.18;;
30613;SDS011;17381;51.690;5.270;2023-01-24T13:36:13;18.73;;;11.05;;
30613;SDS011;17381;51.690;5.270;2023-01-24T14:48:30;16.42;;;10.32;;
30613;SDS011;17381;51.690;5.270;2023-01-24T15:08:14;17.67;;;10.43;;
30613;SDS011;17381;51.690;5.270;2023-01-24T16:08:12;17.20;;;10.75;;
30613;SDS011;17381;51.690;5.270;2023-01-24T16:27:00;18.33;;;10.38;;
30613;SDS011;17381;51.690;5.270;2023-01-24T16:55:27;18.08;;;11.27;;
30613;SDS011;17381;51.690;5.270;2023-01-24T17:07:42;19.92;;;11.70;;
30613;SDS011;17381;51.690;5.270;2023-01-24T18:00:34;22.13;;;13.60;;
30613;SDS011;17381;51.690;5.270;2023-01-24T18:07:53;21.25;;;12.57;;
30613;SDS011;17381;51.690;5.270;2023-01-24T18:11:13;23.40;;;13.75;;
30613;SDS011;17381;51.690;5.270;2023-01-24T18:30:10;23.10;;;13.82;;
30613;SDS011;17381;51.690;5.270;2023-01-24T18:33:41;20.92;;;12.75;;
30613;SDS011;17381;51.690;5.270;2023-01-24T19:15:39;23.85;;;14.55;;
30613;SDS011;17381;51.690;5.270;2023-01-24T19:27:18;24.50;;;14.80;;
30613;SDS011;17381;51.690;5.270;2023-01-24T19:37:45;24.83;;;15.10;;
30613;SDS011;17381;51.690;5.270;2023-01-24T20:04:50;24.67;;;15.25;;
30613;SDS011;17381;51.690;5.270;2023-01-24T20:07:55;24.55;;;14.90;;
30613;SDS011;17381;51.690;5.270;2023-01-24T22:02:57;23.75;;;15.20;;
30613;SDS011;17381;51.690;5.270;2023-01-24T22:06:07;25.27;;;16.02;;
30613;SDS011;17381;51.690;5.270;2023-01-24T22:09:29;23.23;;;13.93;;
30613;SDS011;17381;51.690;5.270;2023-01-24T22:12:40;19.20;;;12.07;;
30613;SDS011;17381;51.690;5.270;2023-01-24T22:16:09;23.48;;;13.95;;
30613;SDS011;17381;51.690;5.270;2023-01-24T22:19:20;24.98;;;15.55;;
30613;SDS011;17381;51.690;5.270;2023-01-24T22:22:31;25.23;;;15.82;;
30613;SDS011;17381;51.690;5.270;2023-01-24T22:26:09;24.30;;;14.60;;
30613;SDS011;17381;51.690;5.270;2023-01-24T22:42:23;24.83;;;15.02;;
30613;SDS011;17381;51.690;5.270;2023-01-24T23:05:24;24.88;;;15.38;;
30613;SDS011;17381;51.690;5.270;2023-01-24T23:08:01;25.02;;;15.40;;
30613;SDS011;17381;51.690;5.270;2023-01-24T23:18:17;26.20;;;15.18;;
30613;SDS011;17381;51.690;5.270;2023-01-24T23:21:05;25.08;;;15.45;;
30613;SDS011;17381;51.690;5.270;2023-01-24T23:23:58;25.00;;;16.02;;
30613;SDS011;17381;51.690;5.270;2023-01-24T23:26:35;23.25;;;14.52;;
30613;SDS011;17381;51.690;5.270;2023-01-24T23:31:43;25.08;;;15.88;;
30613;SDS011;17381;51.690;5.270;2023-01-24T23:34:32;25.83;;;16.38;;
30613;SDS011;17381;51.690;5.270;2023-01-24T23:37:05;23.42;;;15.05;;
30613;SDS011;17381;51.690;5.270;2023-01-24T23:39:40;30.27;;;16.98;;
30613;SDS011;17381;51.690;5.270;2023-01-24T23:42:11;26.85;;;16.02;;
30613;SDS011;17381;51.690;5.270;2023-01-24T23:44:40;23.70;;;14.77;;
30613;SDS011;17381;51.690;5.270;2023-01-24T23:47:17;26.40;;;16.80;;
30613;SDS011;17381;51.690;5.270;2023-01-24T23:49:52;24.80;;;15.48;;
30613;SDS011;17381;51.690;5.270;2023-01-24T23:52:26;28.20;;;17.15;;
30613;SDS011;17381;51.690;5.270;2023-01-24T23:55:04;24.60;;;15.68;;
30613;SDS011;17381;51.690;5.270;2023-01-24T23:57:36;26.73;;;16.50;;
